^^
Meteo Knjazevac Station Historical Data
Daily Summary for January 11, 2021 Units:  English    Metric   Both
Daily Weekly Monthly Yearly Custom
  High: Low: Average:
Temperature: 54.3 °F 48 °F 51.2 °F
Dew Point: 47.9 °F 43.4 °F 45.7 °F
Humidity: 84% 79% 82%
Wind Speed: 2mph 0mph 0.5mph
Wind Gust: 4mph - -
Wind- - SSW
Pressure: 30.15 in 30.15 in -
Precipitation: 0.00 in    
Historical Graphs
 
 
Tabular Data for January 11, 2021
Time Temperature Dew Point Pressure Wind Wind Speed Wind Gust Humidity Rainfall Rate (Hourly) solar Conditions
00:00 54.3 °F 47.9 °F 30.15 in NNE 1 mph 3 mph 79% 0.00 in 0 W/m2
00:10 54 °F 47.6 °F 30.15 in Calm   3 mph 79% 0.00 in 0 W/m2
00:20 53.8 °F 47.4 °F 30.15 in Calm   2 mph 79% 0.00 in 0 W/m2
00:30 53.4 °F 47.1 °F 30.15 in SSE 1 mph 4 mph 79% 0.00 in 0 W/m2
00:40 53.2 °F 46.9 °F 30.15 in SE 2 mph 4 mph 79% 0.00 in 0 W/m2
00:50 52.9 °F 46.9 °F 30.15 in South 1 mph 4 mph 80% 0.00 in 0 W/m2
01:00 52.5 °F 46.5 °F 30.15 in SSW 1 mph 3 mph 80% 0.00 in 0 W/m2
01:10 52.2 °F 46.2 °F 30.15 in Calm   3 mph 80% 0.00 in 0 W/m2
01:20 52 °F 46.3 °F 30.15 in SSW 1 mph 3 mph 81% 0.00 in 0 W/m2
01:30 51.4 °F 45.8 °F 30.15 in Calm   2 mph 81% 0.00 in 0 W/m2
01:40 50.9 °F 45.3 °F 30.15 in WNW 1 mph 1 mph 81% 0.00 in 0 W/m2
01:50 50.4 °F 44.7 °F 30.15 in Calm   2 mph 81% 0.00 in 0 W/m2
02:00 50 °F 45 °F 30.15 in Calm   2 mph 83% 0.00 in 0 W/m2
02:10 49.8 °F 45.2 °F 30.15 in NW 1 mph 2 mph 84% 0.00 in 0 W/m2
02:20 49.6 °F 44.7 °F 30.15 in Calm   2 mph 83% 0.00 in 0 W/m2
02:30 49.5 °F 44.8 °F 30.15 in Calm   2 mph 84% 0.00 in 0 W/m2
02:40 49.1 °F 44.5 °F 30.15 in WNW 1 mph 2 mph 84% 0.00 in 0 W/m2
02:50 48.7 °F 44.1 °F 30.15 in Calm   2 mph 84% 0.00 in 0 W/m2
03:00 48.4 °F 43.8 °F 30.15 in Calm   1 mph 84% 0.00 in 0 W/m2
03:10 48 °F 43.4 °F 30.15 in Calm   2 mph 84% 0.00 in 0 W/m2
Knjazevac, Serbia
Compliments of Weather Underground - 2 mb